Monday, September 22, 2014, 8:17 PM EDT

KMUI, Muir Army Air Field / Indiantown

Location: Jonestown, PA, United States Lat: 40.433
Local Time: 8:17 PM EDT ( 0:17 GMT) Lon: -76.567
Time Zone: US/Eastern Elev: 488 ft

Show me the last for .
Show Decoded

2014-09-22 19:58 METAR KMUI 222358Z AUTO VRB02KT 10SM CLR 14/06 A3013 RMK AO2 SLP206 T01420055
                 10200 20142 52027 $ =
2014-09-22 18:58 METAR KMUI 222258Z AUTO VRB03KT 10SM CLR 15/05 A3010 RMK AO2 SLP195 T01520054 $
                 =
2014-09-22 17:58 METAR KMUI 222158Z AUTO 29007KT 260V350 10SM CLR 17/06 A3008 RMK AO2 SLP188
                 T01700056 $ =
2014-09-22 16:58 METAR KMUI 222058Z AUTO 28011G20KT 260V330 10SM CLR 18/06 A3005 RMK AO2 SLP178
                 T01800060 52012 $ =
2014-09-22 15:58 METAR KMUI 221958Z AUTO 30010G19KT 260V330 10SM SCT048 19/06 A3004 RMK AO2
                 SLP174 T01850063 $ =
2014-09-22 15:34 METAR KMUI 221934Z AUTO 31011G20KT 270V350 10SM BKN048 19/07 A3004 RMK AO2 WSHFT
                 32 =
2014-09-22 14:58 METAR KMUI 221858Z AUTO 28009G23KT 260V320 10SM BKN049 19/06 A3003 RMK AO2
                 SLP170 T01930064 $ =
2014-09-22 14:36 METAR KMUI 221836Z AUTO 33011G21KT 290V020 10SM BKN048 20/07 A3003 RMK AO2 WSHFT
                 34 =
2014-09-22 13:58 METAR KMUI 221758Z AUTO 27015G19KT 10SM OVC048 19/07 A3002 RMK AO2 SLP167
                 T01870073 10192 20155 50007 $ =
2014-09-22 12:58 METAR KMUI 221658Z AUTO 27010G17KT 10SM BKN039 17/08 A3002 RMK AO2 SLP167
                 T01710077 $ =
2014-09-22 11:58 METAR KMUI 221558Z AUTO 32007G20KT 270V020 10SM BKN039 17/08 A3001 RMK AO2
                 SLP163 T01710080 $ =
2014-09-22 10:58 METAR KMUI 221458Z AUTO 32007G21KT 260V020 10SM CLR 17/08 A2999 RMK AO2 SLP156
                 T01730083 52025 $ =
2014-09-22 09:58 METAR KMUI 221358Z AUTO VRB06G22KT 10SM BKN034 16/08 A2998 RMK AO2 SLP154
                 T01580084 $ =
2014-09-22 08:58 METAR KMUI 221258Z AUTO 28009G17KT 10SM FEW031 16/09 A2995 RMK AO2 SLP143
                 T01580091 $ =
2014-09-22 06:58 METAR KMUI 221058Z AUTO 29009KT 10SM CLR 15/10 A2987 RMK AO2 SLP116 T01540098 $
                 =
2014-09-22 05:58 METAR KMUI 220958Z AUTO 27008KT 10SM CLR 16/10 A2984 RMK AO2 SLP105 T01580102 $
                 =
2014-09-22 04:58 METAR KMUI 220858Z AUTO 28006KT 10SM CLR 17/10 A2981 RMK AO2 SLP095 T01650098
                 52018 $ =
2014-09-22 03:58 METAR KMUI 220758Z AUTO 28013G19KT 10SM CLR 17/10 A2979 RMK AO2 SLP087 T01720096
                 $ =
2014-09-22 02:58 METAR KMUI 220658Z AUTO 27006G17KT 10SM CLR 18/10 A2977 RMK AO2 SLP081 T01790103
                 $ =
2014-09-22 01:58 METAR KMUI 220558Z AUTO 28007G16KT 10SM CLR 19/12 A2976 RMK AO2 SLP078 60002
                 T01890116 10218 20189 52019 $ =
2014-09-22 00:58 METAR KMUI 220458Z AUTO 27007KT 10SM CLR 20/13 A2974 RMK AO2 SLP071 T02000125
                 402850127 $ =
2014-09-21 23:58 METAR KMUI 220358Z AUTO 31008G15KT 280V340 10SM CLR 21/16 A2972 RMK AO2 SLP064
                 T02060159 $ =
2014-09-21 22:58 METAR KMUI 220258Z AUTO 27010KT 10SM BKN120 22/17 A2970 RMK AO2 SLP058 60002
                 T02160174 52021 $ =
2014-09-21 21:58 METAR KMUI 220158Z AUTO 24003KT 10SM BKN100 OVC120 20/20 A2967 RMK AO2 SLP048
                 T01980198 $ =
2014-09-21 20:58 METAR KMUI 220058Z AUTO VRB03KT 10SM FEW060 SCT110 BKN130 20/20 A2966 RMK AO2
                 LTG DSNT E RAB0013E0035 SLP045 P0002 T01990199 $ =
2014-09-21 20:35 METAR KMUI 220035Z AUTO 25006KT 10SM SCT049 SCT060 BKN100 OVC130 21/21 A2965 RMK
                 AO2 =

Support USWX by starting your Amazon purchase here.